sensor_id;sensor_type;location;lat;lon;timestamp;P1;durP1;ratioP1;P2;durP2;ratioP2
20609;SDS011;10463;52.378;9.688;2023-03-01T00:01:50;2.53;;;1.93;;
20609;SDS011;10463;52.378;9.688;2023-03-01T00:04:34;2.67;;;2.03;;
20609;SDS011;10463;52.378;9.688;2023-03-01T00:07:19;3.23;;;2.00;;
20609;SDS011;10463;52.378;9.688;2023-03-01T00:10:05;2.33;;;1.73;;
20609;SDS011;10463;52.378;9.688;2023-03-01T00:12:50;2.40;;;1.93;;
20609;SDS011;10463;52.378;9.688;2023-03-01T00:15:39;2.60;;;2.00;;
20609;SDS011;10463;52.378;9.688;2023-03-01T00:18:25;2.30;;;1.70;;
20609;SDS011;10463;52.378;9.688;2023-03-01T00:21:10;2.47;;;2.07;;
20609;SDS011;10463;52.378;9.688;2023-03-01T00:23:55;2.40;;;1.77;;
20609;SDS011;10463;52.378;9.688;2023-03-01T00:26:40;2.30;;;1.90;;
20609;SDS011;10463;52.378;9.688;2023-03-01T00:29:24;2.83;;;2.10;;
20609;SDS011;10463;52.378;9.688;2023-03-01T00:32:11;2.53;;;2.00;;
20609;SDS011;10463;52.378;9.688;2023-03-01T00:34:56;3.27;;;2.30;;
20609;SDS011;10463;52.378;9.688;2023-03-01T00:37:40;3.53;;;2.30;;
20609;SDS011;10463;52.378;9.688;2023-03-01T00:40:25;2.40;;;1.70;;
20609;SDS011;10463;52.378;9.688;2023-03-01T00:43:11;2.87;;;1.93;;
20609;SDS011;10463;52.378;9.688;2023-03-01T00:45:56;2.80;;;1.73;;
20609;SDS011;10463;52.378;9.688;2023-03-01T00:48:47;2.63;;;1.87;;
20609;SDS011;10463;52.378;9.688;2023-03-01T00:51:33;2.30;;;1.70;;
20609;SDS011;10463;52.378;9.688;2023-03-01T00:54:17;2.50;;;1.83;;
20609;SDS011;10463;52.378;9.688;2023-03-01T00:57:02;2.00;;;1.63;;
20609;SDS011;10463;52.378;9.688;2023-03-01T00:59:47;2.70;;;1.90;;
20609;SDS011;10463;52.378;9.688;2023-03-01T01:02:32;2.00;;;1.60;;
20609;SDS011;10463;52.378;9.688;2023-03-01T01:05:20;2.43;;;1.77;;
20609;SDS011;10463;52.378;9.688;2023-03-01T01:08:04;2.23;;;1.80;;
20609;SDS011;10463;52.378;9.688;2023-03-01T01:10:49;2.50;;;1.50;;
20609;SDS011;10463;52.378;9.688;2023-03-01T01:13:34;2.63;;;1.83;;
20609;SDS011;10463;52.378;9.688;2023-03-01T01:16:21;2.20;;;2.00;;
20609;SDS011;10463;52.378;9.688;2023-03-01T01:19:09;3.27;;;2.27;;
20609;SDS011;10463;52.378;9.688;2023-03-01T01:21:56;2.33;;;1.80;;
20609;SDS011;10463;52.378;9.688;2023-03-01T01:24:41;2.40;;;1.90;;
20609;SDS011;10463;52.378;9.688;2023-03-01T01:27:26;2.23;;;1.77;;
20609;SDS011;10463;52.378;9.688;2023-03-01T01:30:11;2.77;;;1.90;;
20609;SDS011;10463;52.378;9.688;2023-03-01T01:32:57;2.30;;;1.60;;
20609;SDS011;10463;52.378;9.688;2023-03-01T01:35:44;2.03;;;1.63;;
20609;SDS011;10463;52.378;9.688;2023-03-01T01:38:31;2.53;;;2.03;;
20609;SDS011;10463;52.378;9.688;2023-03-01T01:41:16;2.40;;;1.83;;
20609;SDS011;10463;52.378;9.688;2023-03-01T01:44:15;2.83;;;2.03;;
20609;SDS011;10463;52.378;9.688;2023-03-01T01:47:03;2.40;;;1.70;;
20609;SDS011;10463;52.378;9.688;2023-03-01T01:49:53;2.00;;;1.67;;
20609;SDS011;10463;52.378;9.688;2023-03-01T01:52:40;3.43;;;2.27;;
20609;SDS011;10463;52.378;9.688;2023-03-01T01:55:26;2.20;;;1.50;;
20609;SDS011;10463;52.378;9.688;2023-03-01T01:58:13;3.47;;;1.70;;
20609;SDS011;10463;52.378;9.688;2023-03-01T02:01:02;1.93;;;1.40;;
20609;SDS011;10463;52.378;9.688;2023-03-01T02:03:30;2.70;;;2.17;;
20609;SDS011;10463;52.378;9.688;2023-03-01T02:06:04;2.33;;;1.50;;
20609;SDS011;10463;52.378;9.688;2023-03-01T02:08:38;2.17;;;1.57;;
20609;SDS011;10463;52.378;9.688;2023-03-01T02:11:09;2.23;;;1.67;;
20609;SDS011;10463;52.378;9.688;2023-03-01T02:13:37;2.40;;;1.60;;
20609;SDS011;10463;52.378;9.688;2023-03-01T02:16:04;2.50;;;1.80;;
20609;SDS011;10463;52.378;9.688;2023-03-01T02:18:34;2.67;;;1.83;;
20609;SDS011;10463;52.378;9.688;2023-03-01T02:21:08;2.40;;;1.83;;
20609;SDS011;10463;52.378;9.688;2023-03-01T02:24:04;3.00;;;2.10;;
20609;SDS011;10463;52.378;9.688;2023-03-01T02:26:58;2.80;;;1.80;;
20609;SDS011;10463;52.378;9.688;2023-03-01T02:29:45;2.30;;;1.60;;
20609;SDS011;10463;52.378;9.688;2023-03-01T02:32:30;3.60;;;1.93;;
20609;SDS011;10463;52.378;9.688;2023-03-01T02:35:16;2.53;;;2.00;;
20609;SDS011;10463;52.378;9.688;2023-03-01T02:38:03;2.57;;;2.10;;
20609;SDS011;10463;52.378;9.688;2023-03-01T02:40:52;2.27;;;1.60;;
20609;SDS011;10463;52.378;9.688;2023-03-01T02:43:39;2.40;;;1.50;;
20609;SDS011;10463;52.378;9.688;2023-03-01T02:46:25;2.70;;;1.80;;
20609;SDS011;10463;52.378;9.688;2023-03-01T02:49:23;1.87;;;1.40;;
20609;SDS011;10463;52.378;9.688;2023-03-01T02:52:30;2.37;;;1.70;;
20609;SDS011;10463;52.378;9.688;2023-03-01T02:55:24;3.20;;;1.93;;
20609;SDS011;10463;52.378;9.688;2023-03-01T02:58:09;2.40;;;1.60;;
20609;SDS011;10463;52.378;9.688;2023-03-01T03:00:54;2.47;;;1.80;;
20609;SDS011;10463;52.378;9.688;2023-03-01T03:03:41;2.33;;;1.83;;
20609;SDS011;10463;52.378;9.688;2023-03-01T03:06:26;2.20;;;1.80;;
20609;SDS011;10463;52.378;9.688;2023-03-01T03:09:12;2.10;;;1.67;;
20609;SDS011;10463;52.378;9.688;2023-03-01T03:11:58;2.23;;;1.47;;
20609;SDS011;10463;52.378;9.688;2023-03-01T03:14:43;2.60;;;1.80;;
20609;SDS011;10463;52.378;9.688;2023-03-01T03:17:28;3.33;;;1.80;;
20609;SDS011;10463;52.378;9.688;2023-03-01T03:20:15;2.87;;;2.23;;
20609;SDS011;10463;52.378;9.688;2023-03-01T03:23:05;2.00;;;1.60;;
20609;SDS011;10463;52.378;9.688;2023-03-01T03:25:50;1.97;;;1.30;;
20609;SDS011;10463;52.378;9.688;2023-03-01T03:28:35;2.30;;;1.90;;
20609;SDS011;10463;52.378;9.688;2023-03-01T03:31:23;2.47;;;2.10;;
20609;SDS011;10463;52.378;9.688;2023-03-01T03:34:08;2.37;;;1.80;;
20609;SDS011;10463;52.378;9.688;2023-03-01T03:37:03;2.60;;;1.70;;
20609;SDS011;10463;52.378;9.688;2023-03-01T03:40:09;2.50;;;1.90;;
20609;SDS011;10463;52.378;9.688;2023-03-01T03:42:59;2.73;;;1.90;;
20609;SDS011;10463;52.378;9.688;2023-03-01T03:45:44;1.93;;;1.47;;
20609;SDS011;10463;52.378;9.688;2023-03-01T03:48:29;2.67;;;2.00;;
20609;SDS011;10463;52.378;9.688;2023-03-01T03:51:15;2.77;;;1.80;;
20609;SDS011;10463;52.378;9.688;2023-03-01T03:54:03;2.90;;;2.00;;
20609;SDS011;10463;52.378;9.688;2023-03-01T03:56:48;2.30;;;1.57;;
20609;SDS011;10463;52.378;9.688;2023-03-01T03:59:32;2.20;;;1.80;;
20609;SDS011;10463;52.378;9.688;2023-03-01T04:02:17;2.40;;;1.70;;
20609;SDS011;10463;52.378;9.688;2023-03-01T04:05:07;2.33;;;1.70;;
20609;SDS011;10463;52.378;9.688;2023-03-01T04:07:53;2.73;;;1.93;;
20609;SDS011;10463;52.378;9.688;2023-03-01T04:10:47;2.50;;;2.00;;
20609;SDS011;10463;52.378;9.688;2023-03-01T04:13:33;1.97;;;1.70;;
20609;SDS011;10463;52.378;9.688;2023-03-01T04:16:18;2.10;;;1.70;;
20609;SDS011;10463;52.378;9.688;2023-03-01T04:19:03;2.53;;;1.90;;
20609;SDS011;10463;52.378;9.688;2023-03-01T04:21:50;2.40;;;1.80;;
20609;SDS011;10463;52.378;9.688;2023-03-01T04:24:35;2.23;;;1.70;;
20609;SDS011;10463;52.378;9.688;2023-03-01T04:27:21;2.23;;;1.70;;
20609;SDS011;10463;52.378;9.688;2023-03-01T04:30:10;1.87;;;1.40;;
20609;SDS011;10463;52.378;9.688;2023-03-01T04:32:55;2.90;;;1.93;;
20609;SDS011;10463;52.378;9.688;2023-03-01T04:35:40;2.53;;;1.83;;
20609;SDS011;10463;52.378;9.688;2023-03-01T04:38:25;2.80;;;1.70;;
20609;SDS011;10463;52.378;9.688;2023-03-01T04:41:10;2.57;;;1.87;;
20609;SDS011;10463;52.378;9.688;2023-03-01T04:43:56;2.40;;;1.83;;
20609;SDS011;10463;52.378;9.688;2023-03-01T04:46:43;2.60;;;1.47;;
20609;SDS011;10463;52.378;9.688;2023-03-01T04:49:28;2.27;;;1.60;;
20609;SDS011;10463;52.378;9.688;2023-03-01T04:52:13;2.30;;;1.90;;
20609;SDS011;10463;52.378;9.688;2023-03-01T04:54:57;2.50;;;1.90;;
20609;SDS011;10463;52.378;9.688;2023-03-01T04:57:42;2.30;;;1.50;;
20609;SDS011;10463;52.378;9.688;2023-03-01T05:00:28;2.40;;;1.80;;
20609;SDS011;10463;52.378;9.688;2023-03-01T05:03:13;2.53;;;2.10;;
20609;SDS011;10463;52.378;9.688;2023-03-01T05:06:02;2.60;;;2.03;;
20609;SDS011;10463;52.378;9.688;2023-03-01T05:08:47;2.67;;;1.80;;
20609;SDS011;10463;52.378;9.688;2023-03-01T05:11:32;2.60;;;1.63;;
20609;SDS011;10463;52.378;9.688;2023-03-01T05:14:19;3.00;;;1.97;;
20609;SDS011;10463;52.378;9.688;2023-03-01T05:17:05;2.23;;;1.80;;
20609;SDS011;10463;52.378;9.688;2023-03-01T05:19:51;2.27;;;1.67;;
20609;SDS011;10463;52.378;9.688;2023-03-01T05:22:36;2.43;;;1.80;;
20609;SDS011;10463;52.378;9.688;2023-03-01T05:25:21;2.30;;;1.80;;
20609;SDS011;10463;52.378;9.688;2023-03-01T05:28:06;2.27;;;1.77;;
20609;SDS011;10463;52.378;9.688;2023-03-01T05:30:54;2.20;;;1.67;;
20609;SDS011;10463;52.378;9.688;2023-03-01T05:33:41;2.40;;;2.00;;
20609;SDS011;10463;52.378;9.688;2023-03-01T05:36:26;2.30;;;1.20;;
20609;SDS011;10463;52.378;9.688;2023-03-01T05:39:11;2.17;;;1.50;;
20609;SDS011;10463;52.378;9.688;2023-03-01T05:41:57;2.10;;;1.80;;
20609;SDS011;10463;52.378;9.688;2023-03-01T05:44:43;2.50;;;1.90;;
20609;SDS011;10463;52.378;9.688;2023-03-01T05:47:28;2.07;;;1.37;;
20609;SDS011;10463;52.378;9.688;2023-03-01T05:50:18;2.23;;;1.40;;
20609;SDS011;10463;52.378;9.688;2023-03-01T05:53:05;2.57;;;1.67;;
20609;SDS011;10463;52.378;9.688;2023-03-01T05:55:51;2.30;;;1.90;;
20609;SDS011;10463;52.378;9.688;2023-03-01T05:58:36;1.93;;;1.37;;
20609;SDS011;10463;52.378;9.688;2023-03-01T06:01:22;2.60;;;1.70;;
20609;SDS011;10463;52.378;9.688;2023-03-01T06:04:07;2.10;;;1.53;;
20609;SDS011;10463;52.378;9.688;2023-03-01T06:06:53;2.27;;;1.80;;
20609;SDS011;10463;52.378;9.688;2023-03-01T06:09:37;2.47;;;1.80;;
20609;SDS011;10463;52.378;9.688;2023-03-01T06:12:22;2.83;;;1.90;;
20609;SDS011;10463;52.378;9.688;2023-03-01T06:15:08;2.13;;;1.70;;
20609;SDS011;10463;52.378;9.688;2023-03-01T06:17:55;2.10;;;1.70;;
20609;SDS011;10463;52.378;9.688;2023-03-01T06:20:51;2.60;;;1.97;;
20609;SDS011;10463;52.378;9.688;2023-03-01T06:23:38;2.30;;;1.80;;
20609;SDS011;10463;52.378;9.688;2023-03-01T06:26:23;3.03;;;1.77;;
20609;SDS011;10463;52.378;9.688;2023-03-01T06:29:08;2.83;;;1.87;;
20609;SDS011;10463;52.378;9.688;2023-03-01T06:31:53;2.60;;;2.10;;
20609;SDS011;10463;52.378;9.688;2023-03-01T06:34:38;1.87;;;1.67;;
20609;SDS011;10463;52.378;9.688;2023-03-01T06:37:23;3.70;;;2.33;;
20609;SDS011;10463;52.378;9.688;2023-03-01T06:40:10;2.53;;;1.90;;
20609;SDS011;10463;52.378;9.688;2023-03-01T06:42:55;2.60;;;2.17;;
20609;SDS011;10463;52.378;9.688;2023-03-01T06:45:40;2.80;;;1.90;;
20609;SDS011;10463;52.378;9.688;2023-03-01T06:48:26;2.67;;;2.20;;
20609;SDS011;10463;52.378;9.688;2023-03-01T06:51:11;2.30;;;1.80;;
20609;SDS011;10463;52.378;9.688;2023-03-01T06:53:56;2.67;;;2.00;;
20609;SDS011;10463;52.378;9.688;2023-03-01T06:56:42;3.40;;;2.50;;
20609;SDS011;10463;52.378;9.688;2023-03-01T06:59:30;3.00;;;2.60;;
20609;SDS011;10463;52.378;9.688;2023-03-01T07:02:15;2.80;;;2.27;;
20609;SDS011;10463;52.378;9.688;2023-03-01T07:05:00;2.60;;;1.83;;
20609;SDS011;10463;52.378;9.688;2023-03-01T07:07:45;2.67;;;2.43;;
20609;SDS011;10463;52.378;9.688;2023-03-01T07:10:30;2.80;;;1.87;;
20609;SDS011;10463;52.378;9.688;2023-03-01T07:13:16;2.50;;;2.10;;
20609;SDS011;10463;52.378;9.688;2023-03-01T07:16:01;2.30;;;2.07;;
20609;SDS011;10463;52.378;9.688;2023-03-01T07:18:46;2.70;;;2.17;;
20609;SDS011;10463;52.378;9.688;2023-03-01T07:21:31;2.50;;;2.00;;
20609;SDS011;10463;52.378;9.688;2023-03-01T07:24:16;3.27;;;2.00;;
20609;SDS011;10463;52.378;9.688;2023-03-01T07:27:00;2.27;;;1.60;;
20609;SDS011;10463;52.378;9.688;2023-03-01T07:29:46;3.63;;;2.17;;
20609;SDS011;10463;52.378;9.688;2023-03-01T07:32:31;2.70;;;2.50;;
20609;SDS011;10463;52.378;9.688;2023-03-01T07:35:16;3.27;;;2.07;;
20609;SDS011;10463;52.378;9.688;2023-03-01T07:38:00;2.77;;;1.90;;
20609;SDS011;10463;52.378;9.688;2023-03-01T07:40:45;2.90;;;2.50;;
20609;SDS011;10463;52.378;9.688;2023-03-01T07:43:33;3.37;;;2.47;;
20609;SDS011;10463;52.378;9.688;2023-03-01T07:46:20;2.43;;;1.97;;
20609;SDS011;10463;52.378;9.688;2023-03-01T07:49:04;3.20;;;2.17;;
20609;SDS011;10463;52.378;9.688;2023-03-01T07:51:49;3.23;;;2.17;;
20609;SDS011;10463;52.378;9.688;2023-03-01T07:54:34;2.80;;;2.03;;
20609;SDS011;10463;52.378;9.688;2023-03-01T07:57:19;2.43;;;2.10;;
20609;SDS011;10463;52.378;9.688;2023-03-01T08:00:05;2.50;;;1.83;;
20609;SDS011;10463;52.378;9.688;2023-03-01T08:03:00;2.27;;;1.80;;
20609;SDS011;10463;52.378;9.688;2023-03-01T08:05:46;2.77;;;2.23;;
20609;SDS011;10463;52.378;9.688;2023-03-01T08:08:31;1.90;;;1.43;;
20609;SDS011;10463;52.378;9.688;2023-03-01T08:11:17;2.83;;;2.00;;
20609;SDS011;10463;52.378;9.688;2023-03-01T08:14:01;2.77;;;2.13;;
20609;SDS011;10463;52.378;9.688;2023-03-01T08:16:48;2.50;;;2.17;;
20609;SDS011;10463;52.378;9.688;2023-03-01T08:19:35;2.80;;;1.80;;
20609;SDS011;10463;52.378;9.688;2023-03-01T08:22:20;3.03;;;1.80;;
20609;SDS011;10463;52.378;9.688;2023-03-01T08:25:05;2.73;;;1.80;;
20609;SDS011;10463;52.378;9.688;2023-03-01T08:27:50;3.00;;;2.17;;
20609;SDS011;10463;52.378;9.688;2023-03-01T08:30:34;2.00;;;1.50;;
20609;SDS011;10463;52.378;9.688;2023-03-01T08:33:19;2.60;;;1.90;;
20609;SDS011;10463;52.378;9.688;2023-03-01T08:36:06;2.93;;;1.97;;
20609;SDS011;10463;52.378;9.688;2023-03-01T08:38:51;2.40;;;1.70;;
20609;SDS011;10463;52.378;9.688;2023-03-01T08:41:36;2.90;;;2.30;;
20609;SDS011;10463;52.378;9.688;2023-03-01T08:44:22;2.03;;;1.77;;
20609;SDS011;10463;52.378;9.688;2023-03-01T08:47:07;3.37;;;2.30;;
20609;SDS011;10463;52.378;9.688;2023-03-01T08:49:51;2.33;;;1.70;;
20609;SDS011;10463;52.378;9.688;2023-03-01T08:52:38;3.10;;;2.03;;
20609;SDS011;10463;52.378;9.688;2023-03-01T08:55:23;2.13;;;1.60;;
20609;SDS011;10463;52.378;9.688;2023-03-01T08:58:08;2.57;;;2.03;;
20609;SDS011;10463;52.378;9.688;2023-03-01T09:00:53;3.40;;;2.13;;
20609;SDS011;10463;52.378;9.688;2023-03-01T09:03:37;2.40;;;1.97;;
20609;SDS011;10463;52.378;9.688;2023-03-01T09:06:22;2.27;;;1.67;;
20609;SDS011;10463;52.378;9.688;2023-03-01T09:09:12;2.73;;;2.07;;
20609;SDS011;10463;52.378;9.688;2023-03-01T09:12:00;2.60;;;2.00;;
20609;SDS011;10463;52.378;9.688;2023-03-01T09:14:45;2.93;;;2.50;;
20609;SDS011;10463;52.378;9.688;2023-03-01T09:17:30;4.00;;;2.20;;
20609;SDS011;10463;52.378;9.688;2023-03-01T09:20:15;2.87;;;2.57;;
20609;SDS011;10463;52.378;9.688;2023-03-01T09:23:01;3.70;;;2.33;;
20609;SDS011;10463;52.378;9.688;2023-03-01T09:25:47;2.33;;;1.57;;
20609;SDS011;10463;52.378;9.688;2023-03-01T09:28:31;3.17;;;2.20;;
20609;SDS011;10463;52.378;9.688;2023-03-01T09:31:17;3.10;;;2.20;;
20609;SDS011;10463;52.378;9.688;2023-03-01T09:34:07;3.63;;;2.33;;
20609;SDS011;10463;52.378;9.688;2023-03-01T09:36:52;2.80;;;2.20;;
20609;SDS011;10463;52.378;9.688;2023-03-01T09:39:37;2.53;;;1.97;;
20609;SDS011;10463;52.378;9.688;2023-03-01T09:42:23;4.70;;;2.93;;
20609;SDS011;10463;52.378;9.688;2023-03-01T09:45:11;4.20;;;2.60;;
20609;SDS011;10463;52.378;9.688;2023-03-01T09:48:05;3.43;;;2.87;;
20609;SDS011;10463;52.378;9.688;2023-03-01T09:50:56;3.80;;;3.03;;
20609;SDS011;10463;52.378;9.688;2023-03-01T09:53:41;4.53;;;3.83;;
20609;SDS011;10463;52.378;9.688;2023-03-01T09:56:29;3.87;;;3.20;;
20609;SDS011;10463;52.378;9.688;2023-03-01T09:59:20;3.47;;;2.70;;
20609;SDS011;10463;52.378;9.688;2023-03-01T10:02:21;4.10;;;3.13;;
20609;SDS011;10463;52.378;9.688;2023-03-01T10:05:21;3.87;;;3.10;;
20609;SDS011;10463;52.378;9.688;2023-03-01T10:08:26;4.50;;;3.10;;
20609;SDS011;10463;52.378;9.688;2023-03-01T10:11:21;3.90;;;2.77;;
20609;SDS011;10463;52.378;9.688;2023-03-01T10:14:32;3.93;;;3.00;;
20609;SDS011;10463;52.378;9.688;2023-03-01T10:17:25;3.80;;;3.10;;
20609;SDS011;10463;52.378;9.688;2023-03-01T10:20:17;3.53;;;3.23;;
20609;SDS011;10463;52.378;9.688;2023-03-01T10:23:04;3.97;;;3.27;;
20609;SDS011;10463;52.378;9.688;2023-03-01T10:25:59;4.23;;;3.43;;
20609;SDS011;10463;52.378;9.688;2023-03-01T10:29:00;3.90;;;3.10;;
20609;SDS011;10463;52.378;9.688;2023-03-01T10:31:49;3.70;;;3.30;;
20609;SDS011;10463;52.378;9.688;2023-03-01T10:34:36;4.47;;;3.30;;
20609;SDS011;10463;52.378;9.688;2023-03-01T10:37:21;4.30;;;3.03;;
20609;SDS011;10463;52.378;9.688;2023-03-01T10:40:10;3.60;;;2.93;;
20609;SDS011;10463;52.378;9.688;2023-03-01T10:42:58;4.43;;;3.73;;
20609;SDS011;10463;52.378;9.688;2023-03-01T10:45:45;4.73;;;3.20;;
20609;SDS011;10463;52.378;9.688;2023-03-01T10:48:31;3.80;;;3.40;;
20609;SDS011;10463;52.378;9.688;2023-03-01T10:51:17;4.43;;;3.60;;
20609;SDS011;10463;52.378;9.688;2023-03-01T10:54:04;4.20;;;3.40;;
20609;SDS011;10463;52.378;9.688;2023-03-01T10:56:59;4.40;;;3.70;;
20609;SDS011;10463;52.378;9.688;2023-03-01T10:59:45;3.73;;;3.03;;
20609;SDS011;10463;52.378;9.688;2023-03-01T11:03:11;3.60;;;3.13;;
20609;SDS011;10463;52.378;9.688;2023-03-01T11:06:04;3.60;;;3.00;;
20609;SDS011;10463;52.378;9.688;2023-03-01T11:09:14;3.70;;;3.20;;
20609;SDS011;10463;52.378;9.688;2023-03-01T11:12:00;4.10;;;3.23;;
20609;SDS011;10463;52.378;9.688;2023-03-01T11:14:49;3.83;;;3.40;;
20609;SDS011;10463;52.378;9.688;2023-03-01T11:17:35;4.17;;;3.20;;
20609;SDS011;10463;52.378;9.688;2023-03-01T11:20:25;3.90;;;3.20;;
20609;SDS011;10463;52.378;9.688;2023-03-01T11:23:16;3.47;;;3.10;;
20609;SDS011;10463;52.378;9.688;2023-03-01T11:26:04;3.50;;;3.03;;
20609;SDS011;10463;52.378;9.688;2023-03-01T11:28:54;3.63;;;3.07;;
20609;SDS011;10463;52.378;9.688;2023-03-01T11:31:44;3.93;;;3.23;;
20609;SDS011;10463;52.378;9.688;2023-03-01T11:34:37;4.40;;;3.40;;
20609;SDS011;10463;52.378;9.688;2023-03-01T11:37:32;3.93;;;3.20;;
20609;SDS011;10463;52.378;9.688;2023-03-01T11:40:23;3.90;;;3.20;;
20609;SDS011;10463;52.378;9.688;2023-03-01T11:43:14;4.00;;;3.27;;
20609;SDS011;10463;52.378;9.688;2023-03-01T11:50:07;3.17;;;2.80;;
20609;SDS011;10463;52.378;9.688;2023-03-01T11:53:17;3.57;;;2.87;;
20609;SDS011;10463;52.378;9.688;2023-03-01T11:56:21;4.03;;;3.10;;
20609;SDS011;10463;52.378;9.688;2023-03-01T12:02:54;3.07;;;2.53;;
20609;SDS011;10463;52.378;9.688;2023-03-01T12:06:11;3.40;;;2.80;;
20609;SDS011;10463;52.378;9.688;2023-03-01T12:09:16;4.00;;;2.87;;
20609;SDS011;10463;52.378;9.688;2023-03-01T12:12:36;3.80;;;2.73;;
20609;SDS011;10463;52.378;9.688;2023-03-01T12:15:54;3.57;;;2.80;;
20609;SDS011;10463;52.378;9.688;2023-03-01T12:18:53;4.07;;;2.97;;
20609;SDS011;10463;52.378;9.688;2023-03-01T12:22:10;3.60;;;2.63;;
20609;SDS011;10463;52.378;9.688;2023-03-01T12:25:23;3.10;;;2.30;;
20609;SDS011;10463;52.378;9.688;2023-03-01T12:28:25;3.83;;;2.77;;
20609;SDS011;10463;52.378;9.688;2023-03-01T12:35:06;2.60;;;2.20;;
20609;SDS011;10463;52.378;9.688;2023-03-01T12:38:11;3.83;;;2.50;;
20609;SDS011;10463;52.378;9.688;2023-03-01T12:44:47;3.03;;;2.23;;
20609;SDS011;10463;52.378;9.688;2023-03-01T12:47:55;2.97;;;2.33;;
20609;SDS011;10463;52.378;9.688;2023-03-01T12:50:52;2.90;;;2.23;;
20609;SDS011;10463;52.378;9.688;2023-03-01T12:53:39;2.93;;;2.27;;
20609;SDS011;10463;52.378;9.688;2023-03-01T12:56:30;2.20;;;1.70;;
20609;SDS011;10463;52.378;9.688;2023-03-01T12:59:20;2.70;;;2.10;;
20609;SDS011;10463;52.378;9.688;2023-03-01T13:02:15;2.77;;;2.33;;
20609;SDS011;10463;52.378;9.688;2023-03-01T13:05:19;2.30;;;1.80;;
20609;SDS011;10463;52.378;9.688;2023-03-01T13:08:15;2.47;;;2.27;;
20609;SDS011;10463;52.378;9.688;2023-03-01T13:11:05;2.40;;;1.97;;
20609;SDS011;10463;52.378;9.688;2023-03-01T13:17:33;2.60;;;1.83;;
20609;SDS011;10463;52.378;9.688;2023-03-01T13:20:29;2.50;;;2.00;;
20609;SDS011;10463;52.378;9.688;2023-03-01T13:23:25;2.80;;;1.93;;
20609;SDS011;10463;52.378;9.688;2023-03-01T13:26:13;3.40;;;2.27;;
20609;SDS011;10463;52.378;9.688;2023-03-01T13:28:59;2.60;;;2.13;;
20609;SDS011;10463;52.378;9.688;2023-03-01T13:32:00;2.57;;;2.03;;
20609;SDS011;10463;52.378;9.688;2023-03-01T13:34:48;2.47;;;1.70;;
20609;SDS011;10463;52.378;9.688;2023-03-01T13:37:37;2.00;;;1.50;;
20609;SDS011;10463;52.378;9.688;2023-03-01T13:40:57;2.63;;;1.80;;
20609;SDS011;10463;52.378;9.688;2023-03-01T13:43:44;2.30;;;1.70;;
20609;SDS011;10463;52.378;9.688;2023-03-01T13:46:31;2.57;;;1.93;;
20609;SDS011;10463;52.378;9.688;2023-03-01T13:49:22;2.33;;;1.90;;
20609;SDS011;10463;52.378;9.688;2023-03-01T13:52:30;2.63;;;1.90;;
20609;SDS011;10463;52.378;9.688;2023-03-01T13:55:26;1.90;;;1.40;;
20609;SDS011;10463;52.378;9.688;2023-03-01T13:58:21;2.50;;;1.80;;
20609;SDS011;10463;52.378;9.688;2023-03-01T14:01:22;2.50;;;1.70;;
20609;SDS011;10463;52.378;9.688;2023-03-01T14:04:19;2.30;;;1.80;;
20609;SDS011;10463;52.378;9.688;2023-03-01T14:07:11;3.67;;;2.30;;
20609;SDS011;10463;52.378;9.688;2023-03-01T14:09:58;2.50;;;2.00;;
20609;SDS011;10463;52.378;9.688;2023-03-01T14:12:47;2.50;;;1.83;;
20609;SDS011;10463;52.378;9.688;2023-03-01T14:15:41;2.43;;;1.80;;
20609;SDS011;10463;52.378;9.688;2023-03-01T14:18:33;2.57;;;1.70;;
20609;SDS011;10463;52.378;9.688;2023-03-01T14:21:26;2.40;;;1.80;;
20609;SDS011;10463;52.378;9.688;2023-03-01T14:24:18;2.27;;;1.70;;
20609;SDS011;10463;52.378;9.688;2023-03-01T14:27:11;2.70;;;1.90;;
20609;SDS011;10463;52.378;9.688;2023-03-01T14:29:58;3.20;;;2.00;;
20609;SDS011;10463;52.378;9.688;2023-03-01T14:32:52;2.23;;;1.53;;
20609;SDS011;10463;52.378;9.688;2023-03-01T14:35:37;2.00;;;1.47;;
20609;SDS011;10463;52.378;9.688;2023-03-01T14:38:27;2.60;;;1.90;;
20609;SDS011;10463;52.378;9.688;2023-03-01T14:41:16;2.30;;;1.77;;
20609;SDS011;10463;52.378;9.688;2023-03-01T14:44:06;1.93;;;1.43;;
20609;SDS011;10463;52.378;9.688;2023-03-01T14:46:56;2.27;;;1.80;;
20609;SDS011;10463;52.378;9.688;2023-03-01T14:49:42;2.50;;;1.67;;
20609;SDS011;10463;52.378;9.688;2023-03-01T14:52:33;1.90;;;1.40;;
20609;SDS011;10463;52.378;9.688;2023-03-01T14:55:21;2.10;;;1.67;;
20609;SDS011;10463;52.378;9.688;2023-03-01T14:58:12;2.03;;;1.53;;
20609;SDS011;10463;52.378;9.688;2023-03-01T15:01:01;2.13;;;1.57;;
20609;SDS011;10463;52.378;9.688;2023-03-01T15:03:48;2.40;;;1.60;;
20609;SDS011;10463;52.378;9.688;2023-03-01T15:06:35;2.33;;;1.70;;
20609;SDS011;10463;52.378;9.688;2023-03-01T15:09:19;2.10;;;1.40;;
20609;SDS011;10463;52.378;9.688;2023-03-01T15:12:31;1.90;;;1.53;;
20609;SDS011;10463;52.378;9.688;2023-03-01T15:15:34;2.50;;;1.50;;
20609;SDS011;10463;52.378;9.688;2023-03-01T15:18:26;1.90;;;1.40;;
20609;SDS011;10463;52.378;9.688;2023-03-01T15:21:18;2.03;;;1.53;;
20609;SDS011;10463;52.378;9.688;2023-03-01T15:24:07;2.10;;;1.60;;
20609;SDS011;10463;52.378;9.688;2023-03-01T15:27:04;2.10;;;1.57;;
20609;SDS011;10463;52.378;9.688;2023-03-01T15:29:53;2.10;;;1.37;;
20609;SDS011;10463;52.378;9.688;2023-03-01T15:32:41;1.80;;;1.20;;
20609;SDS011;10463;52.378;9.688;2023-03-01T15:35:40;2.00;;;1.20;;
20609;SDS011;10463;52.378;9.688;2023-03-01T15:38:32;1.70;;;1.20;;
20609;SDS011;10463;52.378;9.688;2023-03-01T15:41:24;2.07;;;1.27;;
20609;SDS011;10463;52.378;9.688;2023-03-01T15:44:17;2.43;;;1.50;;
20609;SDS011;10463;52.378;9.688;2023-03-01T15:47:22;1.77;;;1.33;;
20609;SDS011;10463;52.378;9.688;2023-03-01T15:50:16;2.13;;;1.53;;
20609;SDS011;10463;52.378;9.688;2023-03-01T15:53:07;2.40;;;1.80;;
20609;SDS011;10463;52.378;9.688;2023-03-01T15:55:55;2.00;;;1.50;;
20609;SDS011;10463;52.378;9.688;2023-03-01T15:58:40;2.00;;;1.43;;
20609;SDS011;10463;52.378;9.688;2023-03-01T16:01:25;2.13;;;1.50;;
20609;SDS011;10463;52.378;9.688;2023-03-01T16:04:11;2.03;;;1.60;;
20609;SDS011;10463;52.378;9.688;2023-03-01T16:07:00;1.77;;;1.23;;
20609;SDS011;10463;52.378;9.688;2023-03-01T16:09:46;1.80;;;1.43;;
20609;SDS011;10463;52.378;9.688;2023-03-01T16:12:31;2.27;;;1.47;;
20609;SDS011;10463;52.378;9.688;2023-03-01T16:15:18;2.00;;;1.53;;
20609;SDS011;10463;52.378;9.688;2023-03-01T16:18:04;2.07;;;1.50;;
20609;SDS011;10463;52.378;9.688;2023-03-01T16:20:50;1.90;;;1.40;;
20609;SDS011;10463;52.378;9.688;2023-03-01T16:23:34;2.00;;;1.60;;
20609;SDS011;10463;52.378;9.688;2023-03-01T16:26:21;1.80;;;1.27;;
20609;SDS011;10463;52.378;9.688;2023-03-01T16:29:05;1.80;;;1.20;;
20609;SDS011;10463;52.378;9.688;2023-03-01T16:31:50;1.70;;;1.20;;
20609;SDS011;10463;52.378;9.688;2023-03-01T16:34:35;2.13;;;1.47;;
20609;SDS011;10463;52.378;9.688;2023-03-01T16:37:20;2.13;;;1.40;;
20609;SDS011;10463;52.378;9.688;2023-03-01T16:40:11;1.80;;;1.20;;
20609;SDS011;10463;52.378;9.688;2023-03-01T16:43:02;1.73;;;1.13;;
20609;SDS011;10463;52.378;9.688;2023-03-01T16:45:48;1.60;;;1.13;;
20609;SDS011;10463;52.378;9.688;2023-03-01T16:48:33;1.90;;;1.57;;
20609;SDS011;10463;52.378;9.688;2023-03-01T16:51:18;1.67;;;1.30;;
20609;SDS011;10463;52.378;9.688;2023-03-01T16:54:04;1.97;;;1.43;;
20609;SDS011;10463;52.378;9.688;2023-03-01T16:56:48;2.10;;;1.20;;
20609;SDS011;10463;52.378;9.688;2023-03-01T16:59:34;1.80;;;1.30;;
20609;SDS011;10463;52.378;9.688;2023-03-01T17:02:21;1.67;;;1.27;;
20609;SDS011;10463;52.378;9.688;2023-03-01T17:05:07;1.90;;;1.40;;
20609;SDS011;10463;52.378;9.688;2023-03-01T17:07:53;1.40;;;0.93;;
20609;SDS011;10463;52.378;9.688;2023-03-01T17:10:39;1.83;;;1.33;;
20609;SDS011;10463;52.378;9.688;2023-03-01T17:13:26;1.70;;;1.13;;
20609;SDS011;10463;52.378;9.688;2023-03-01T17:16:13;1.57;;;1.20;;